sensor_id;sensor_type;location;lat;lon;timestamp;P1;durP1;ratioP1;P2;durP2;ratioP2
72437;SDS011;60444;43.534;-5.674;2022-12-17T00:00:34;13.65;;;2.78;;
72437;SDS011;60444;43.534;-5.674;2022-12-17T00:03:18;9.27;;;2.15;;
72437;SDS011;60444;43.534;-5.674;2022-12-17T00:06:04;6.73;;;1.80;;
72437;SDS011;60444;43.534;-5.674;2022-12-17T00:08:51;6.57;;;2.00;;
72437;SDS011;60444;43.534;-5.674;2022-12-17T00:11:35;6.30;;;1.60;;
72437;SDS011;60444;43.534;-5.674;2022-12-17T00:14:19;8.65;;;1.85;;
72437;SDS011;60444;43.534;-5.674;2022-12-17T00:17:06;8.88;;;2.40;;
72437;SDS011;60444;43.534;-5.674;2022-12-17T00:19:55;6.83;;;1.67;;
72437;SDS011;60444;43.534;-5.674;2022-12-17T00:22:42;7.45;;;1.83;;
72437;SDS011;60444;43.534;-5.674;2022-12-17T00:25:29;13.88;;;3.00;;
72437;SDS011;60444;43.534;-5.674;2022-12-17T00:28:15;9.63;;;1.65;;
72437;SDS011;60444;43.534;-5.674;2022-12-17T00:31:18;8.98;;;2.10;;
72437;SDS011;60444;43.534;-5.674;2022-12-17T00:34:02;7.40;;;1.80;;
72437;SDS011;60444;43.534;-5.674;2022-12-17T00:36:46;9.25;;;2.38;;
72437;SDS011;60444;43.534;-5.674;2022-12-17T00:39:32;7.63;;;1.70;;
72437;SDS011;60444;43.534;-5.674;2022-12-17T00:42:19;7.22;;;2.10;;
72437;SDS011;60444;43.534;-5.674;2022-12-17T00:45:08;5.70;;;2.13;;
72437;SDS011;60444;43.534;-5.674;2022-12-17T00:47:58;7.53;;;1.80;;
72437;SDS011;60444;43.534;-5.674;2022-12-17T00:50:42;9.32;;;2.40;;
72437;SDS011;60444;43.534;-5.674;2022-12-17T00:53:26;10.05;;;2.85;;
72437;SDS011;60444;43.534;-5.674;2022-12-17T00:56:10;8.27;;;2.30;;
72437;SDS011;60444;43.534;-5.674;2022-12-17T00:58:54;6.85;;;2.15;;
72437;SDS011;60444;43.534;-5.674;2022-12-17T01:01:38;9.73;;;2.63;;
72437;SDS011;60444;43.534;-5.674;2022-12-17T01:04:25;7.68;;;1.77;;
72437;SDS011;60444;43.534;-5.674;2022-12-17T01:07:12;8.77;;;2.10;;
72437;SDS011;60444;43.534;-5.674;2022-12-17T01:09:56;6.95;;;2.00;;
72437;SDS011;60444;43.534;-5.674;2022-12-17T01:13:01;7.57;;;1.58;;
72437;SDS011;60444;43.534;-5.674;2022-12-17T01:16:02;10.73;;;2.53;;
72437;SDS011;60444;43.534;-5.674;2022-12-17T01:18:57;10.40;;;2.55;;
72437;SDS011;60444;43.534;-5.674;2022-12-17T01:21:43;7.57;;;2.25;;
72437;SDS011;60444;43.534;-5.674;2022-12-17T01:24:28;7.82;;;2.25;;
72437;SDS011;60444;43.534;-5.674;2022-12-17T01:27:18;9.07;;;2.45;;
72437;SDS011;60444;43.534;-5.674;2022-12-17T01:30:05;11.00;;;2.80;;
72437;SDS011;60444;43.534;-5.674;2022-12-17T01:32:52;6.25;;;1.98;;
72437;SDS011;60444;43.534;-5.674;2022-12-17T01:35:36;9.20;;;2.83;;
72437;SDS011;60444;43.534;-5.674;2022-12-17T01:38:20;11.27;;;2.67;;
72437;SDS011;60444;43.534;-5.674;2022-12-17T01:41:04;8.55;;;2.42;;
72437;SDS011;60444;43.534;-5.674;2022-12-17T01:43:48;7.00;;;2.47;;
72437;SDS011;60444;43.534;-5.674;2022-12-17T01:46:44;7.63;;;2.10;;
72437;SDS011;60444;43.534;-5.674;2022-12-17T01:49:33;9.75;;;2.75;;
72437;SDS011;60444;43.534;-5.674;2022-12-17T01:52:21;11.27;;;2.20;;
72437;SDS011;60444;43.534;-5.674;2022-12-17T01:55:25;8.75;;;2.65;;
72437;SDS011;60444;43.534;-5.674;2022-12-17T01:58:09;6.87;;;1.90;;
72437;SDS011;60444;43.534;-5.674;2022-12-17T02:00:57;11.10;;;3.10;;
72437;SDS011;60444;43.534;-5.674;2022-12-17T02:03:44;13.27;;;2.70;;
72437;SDS011;60444;43.534;-5.674;2022-12-17T02:06:30;7.53;;;2.30;;
72437;SDS011;60444;43.534;-5.674;2022-12-17T02:09:23;14.18;;;3.03;;
72437;SDS011;60444;43.534;-5.674;2022-12-17T02:12:30;8.07;;;2.50;;
72437;SDS011;60444;43.534;-5.674;2022-12-17T02:15:41;10.40;;;2.25;;
72437;SDS011;60444;43.534;-5.674;2022-12-17T02:18:47;10.50;;;2.45;;
72437;SDS011;60444;43.534;-5.674;2022-12-17T02:21:39;11.30;;;3.08;;
72437;SDS011;60444;43.534;-5.674;2022-12-17T02:24:51;9.40;;;2.75;;
72437;SDS011;60444;43.534;-5.674;2022-12-17T02:27:49;7.93;;;2.40;;
72437;SDS011;60444;43.534;-5.674;2022-12-17T02:30:33;10.77;;;2.63;;
72437;SDS011;60444;43.534;-5.674;2022-12-17T02:33:22;9.50;;;3.20;;
72437;SDS011;60444;43.534;-5.674;2022-12-17T02:36:06;9.15;;;3.00;;
72437;SDS011;60444;43.534;-5.674;2022-12-17T02:38:51;7.05;;;2.45;;
72437;SDS011;60444;43.534;-5.674;2022-12-17T02:41:48;6.63;;;1.90;;
72437;SDS011;60444;43.534;-5.674;2022-12-17T02:44:37;8.48;;;2.45;;
72437;SDS011;60444;43.534;-5.674;2022-12-17T02:47:24;8.68;;;2.42;;
72437;SDS011;60444;43.534;-5.674;2022-12-17T02:50:11;7.72;;;1.67;;
72437;SDS011;60444;43.534;-5.674;2022-12-17T02:52:59;6.68;;;2.20;;
72437;SDS011;60444;43.534;-5.674;2022-12-17T02:55:44;11.13;;;2.57;;
72437;SDS011;60444;43.534;-5.674;2022-12-17T02:58:28;10.73;;;2.60;;
72437;SDS011;60444;43.534;-5.674;2022-12-17T03:01:15;7.70;;;2.30;;
72437;SDS011;60444;43.534;-5.674;2022-12-17T03:03:59;8.75;;;2.35;;
72437;SDS011;60444;43.534;-5.674;2022-12-17T03:06:43;8.32;;;1.83;;
72437;SDS011;60444;43.534;-5.674;2022-12-17T03:09:30;6.03;;;1.67;;
72437;SDS011;60444;43.534;-5.674;2022-12-17T03:12:17;6.60;;;2.00;;
72437;SDS011;60444;43.534;-5.674;2022-12-17T03:15:08;6.75;;;1.92;;
72437;SDS011;60444;43.534;-5.674;2022-12-17T03:21:14;10.30;;;2.42;;
72437;SDS011;60444;43.534;-5.674;2022-12-17T03:23:58;7.40;;;1.80;;
72437;SDS011;60444;43.534;-5.674;2022-12-17T03:26:42;6.28;;;2.35;;
72437;SDS011;60444;43.534;-5.674;2022-12-17T03:29:26;8.82;;;2.38;;
72437;SDS011;60444;43.534;-5.674;2022-12-17T03:32:10;12.52;;;2.67;;
72437;SDS011;60444;43.534;-5.674;2022-12-17T03:35:00;6.40;;;2.17;;
72437;SDS011;60444;43.534;-5.674;2022-12-17T03:37:43;9.90;;;2.70;;
72437;SDS011;60444;43.534;-5.674;2022-12-17T03:40:30;12.32;;;2.72;;
72437;SDS011;60444;43.534;-5.674;2022-12-17T03:43:14;9.85;;;2.90;;
72437;SDS011;60444;43.534;-5.674;2022-12-17T03:45:58;10.93;;;2.50;;
72437;SDS011;60444;43.534;-5.674;2022-12-17T03:48:42;10.68;;;2.42;;
72437;SDS011;60444;43.534;-5.674;2022-12-17T03:51:32;11.57;;;2.97;;
72437;SDS011;60444;43.534;-5.674;2022-12-17T03:54:25;10.18;;;2.47;;
72437;SDS011;60444;43.534;-5.674;2022-12-17T04:00:06;8.88;;;2.85;;
72437;SDS011;60444;43.534;-5.674;2022-12-17T04:02:51;9.00;;;3.47;;
72437;SDS011;60444;43.534;-5.674;2022-12-17T04:05:36;7.90;;;2.70;;
72437;SDS011;60444;43.534;-5.674;2022-12-17T04:08:28;9.70;;;2.83;;
72437;SDS011;60444;43.534;-5.674;2022-12-17T04:11:15;11.73;;;2.90;;
72437;SDS011;60444;43.534;-5.674;2022-12-17T04:13:59;11.77;;;3.72;;
72437;SDS011;60444;43.534;-5.674;2022-12-17T04:16:43;11.05;;;3.15;;
72437;SDS011;60444;43.534;-5.674;2022-12-17T04:19:27;7.83;;;2.73;;
72437;SDS011;60444;43.534;-5.674;2022-12-17T04:22:13;9.75;;;3.33;;
72437;SDS011;60444;43.534;-5.674;2022-12-17T04:24:57;7.70;;;2.65;;
72437;SDS011;60444;43.534;-5.674;2022-12-17T04:27:49;11.07;;;3.22;;
72437;SDS011;60444;43.534;-5.674;2022-12-17T04:30:36;10.70;;;3.65;;
72437;SDS011;60444;43.534;-5.674;2022-12-17T04:33:20;9.57;;;2.83;;
72437;SDS011;60444;43.534;-5.674;2022-12-17T04:36:04;9.98;;;3.65;;
72437;SDS011;60444;43.534;-5.674;2022-12-17T04:38:51;7.35;;;2.47;;
72437;SDS011;60444;43.534;-5.674;2022-12-17T04:44:03;12.18;;;3.72;;
72437;SDS011;60444;43.534;-5.674;2022-12-17T04:46:50;9.73;;;2.93;;
72437;SDS011;60444;43.534;-5.674;2022-12-17T04:49:36;8.32;;;2.67;;
72437;SDS011;60444;43.534;-5.674;2022-12-17T04:52:20;9.20;;;2.38;;
72437;SDS011;60444;43.534;-5.674;2022-12-17T04:55:04;10.48;;;2.60;;
72437;SDS011;60444;43.534;-5.674;2022-12-17T04:57:51;8.90;;;2.60;;
72437;SDS011;60444;43.534;-5.674;2022-12-17T05:00:35;6.20;;;1.87;;
72437;SDS011;60444;43.534;-5.674;2022-12-17T05:03:19;8.32;;;1.90;;
72437;SDS011;60444;43.534;-5.674;2022-12-17T05:06:03;7.13;;;2.15;;
72437;SDS011;60444;43.534;-5.674;2022-12-17T05:08:48;7.90;;;2.58;;
72437;SDS011;60444;43.534;-5.674;2022-12-17T05:11:34;10.57;;;2.53;;
72437;SDS011;60444;43.534;-5.674;2022-12-17T05:14:32;7.53;;;2.63;;
72437;SDS011;60444;43.534;-5.674;2022-12-17T05:17:18;7.70;;;2.55;;
72437;SDS011;60444;43.534;-5.674;2022-12-17T05:20:02;10.52;;;3.03;;
72437;SDS011;60444;43.534;-5.674;2022-12-17T05:22:46;11.27;;;2.80;;
72437;SDS011;60444;43.534;-5.674;2022-12-17T05:25:30;7.75;;;2.58;;
72437;SDS011;60444;43.534;-5.674;2022-12-17T05:28:14;9.10;;;2.73;;
72437;SDS011;60444;43.534;-5.674;2022-12-17T05:31:04;8.98;;;2.78;;
72437;SDS011;60444;43.534;-5.674;2022-12-17T05:33:48;7.47;;;2.28;;
72437;SDS011;60444;43.534;-5.674;2022-12-17T05:36:41;8.68;;;2.90;;
72437;SDS011;60444;43.534;-5.674;2022-12-17T05:39:25;8.82;;;3.13;;
72437;SDS011;60444;43.534;-5.674;2022-12-17T05:42:12;7.00;;;2.50;;
72437;SDS011;60444;43.534;-5.674;2022-12-17T05:44:56;9.18;;;2.67;;
72437;SDS011;60444;43.534;-5.674;2022-12-17T05:47:43;9.27;;;3.10;;
72437;SDS011;60444;43.534;-5.674;2022-12-17T05:50:27;9.35;;;2.72;;
72437;SDS011;60444;43.534;-5.674;2022-12-17T05:53:11;8.75;;;3.22;;
72437;SDS011;60444;43.534;-5.674;2022-12-17T05:55:55;7.30;;;2.10;;
72437;SDS011;60444;43.534;-5.674;2022-12-17T05:58:39;8.10;;;2.65;;
72437;SDS011;60444;43.534;-5.674;2022-12-17T06:01:25;9.95;;;3.40;;
72437;SDS011;60444;43.534;-5.674;2022-12-17T06:04:09;9.85;;;3.00;;
72437;SDS011;60444;43.534;-5.674;2022-12-17T06:07:02;11.10;;;3.75;;
72437;SDS011;60444;43.534;-5.674;2022-12-17T06:09:46;12.40;;;3.43;;
72437;SDS011;60444;43.534;-5.674;2022-12-17T06:12:30;9.68;;;2.75;;
72437;SDS011;60444;43.534;-5.674;2022-12-17T06:15:14;8.40;;;2.47;;
72437;SDS011;60444;43.534;-5.674;2022-12-17T06:17:58;7.78;;;2.08;;
72437;SDS011;60444;43.534;-5.674;2022-12-17T06:20:45;6.50;;;1.90;;
72437;SDS011;60444;43.534;-5.674;2022-12-17T06:26:36;6.93;;;2.13;;
72437;SDS011;60444;43.534;-5.674;2022-12-17T06:29:20;7.57;;;2.30;;
72437;SDS011;60444;43.534;-5.674;2022-12-17T06:32:11;8.90;;;2.47;;
72437;SDS011;60444;43.534;-5.674;2022-12-17T06:34:54;9.60;;;3.35;;
72437;SDS011;60444;43.534;-5.674;2022-12-17T06:37:38;9.07;;;2.53;;
72437;SDS011;60444;43.534;-5.674;2022-12-17T06:40:22;8.52;;;2.50;;
72437;SDS011;60444;43.534;-5.674;2022-12-17T06:43:06;7.03;;;2.55;;
72437;SDS011;60444;43.534;-5.674;2022-12-17T06:45:51;8.70;;;2.80;;
72437;SDS011;60444;43.534;-5.674;2022-12-17T06:48:42;8.45;;;2.80;;
72437;SDS011;60444;43.534;-5.674;2022-12-17T06:51:26;7.73;;;2.50;;
72437;SDS011;60444;43.534;-5.674;2022-12-17T06:54:10;10.38;;;3.22;;
72437;SDS011;60444;43.534;-5.674;2022-12-17T06:56:56;6.03;;;2.47;;
72437;SDS011;60444;43.534;-5.674;2022-12-17T06:59:40;8.52;;;2.47;;
72437;SDS011;60444;43.534;-5.674;2022-12-17T07:02:30;11.07;;;3.78;;
72437;SDS011;60444;43.534;-5.674;2022-12-17T07:05:14;10.03;;;2.70;;
72437;SDS011;60444;43.534;-5.674;2022-12-17T07:07:58;13.05;;;2.80;;
72437;SDS011;60444;43.534;-5.674;2022-12-17T07:10:43;8.13;;;2.25;;
72437;SDS011;60444;43.534;-5.674;2022-12-17T07:13:27;7.85;;;2.40;;
72437;SDS011;60444;43.534;-5.674;2022-12-17T07:16:17;6.60;;;2.05;;
72437;SDS011;60444;43.534;-5.674;2022-12-17T07:19:01;8.17;;;2.20;;
72437;SDS011;60444;43.534;-5.674;2022-12-17T07:21:45;10.48;;;2.38;;
72437;SDS011;60444;43.534;-5.674;2022-12-17T07:24:32;8.10;;;2.75;;
72437;SDS011;60444;43.534;-5.674;2022-12-17T07:27:22;7.45;;;2.00;;
72437;SDS011;60444;43.534;-5.674;2022-12-17T07:30:06;7.55;;;2.28;;
72437;SDS011;60444;43.534;-5.674;2022-12-17T07:33:02;7.43;;;2.70;;
72437;SDS011;60444;43.534;-5.674;2022-12-17T07:35:48;6.75;;;2.20;;
72437;SDS011;60444;43.534;-5.674;2022-12-17T07:38:34;6.88;;;2.03;;
72437;SDS011;60444;43.534;-5.674;2022-12-17T07:41:18;7.28;;;2.55;;
72437;SDS011;60444;43.534;-5.674;2022-12-17T07:44:04;7.18;;;2.58;;
72437;SDS011;60444;43.534;-5.674;2022-12-17T07:46:51;9.30;;;2.23;;
72437;SDS011;60444;43.534;-5.674;2022-12-17T07:49:37;9.27;;;2.60;;
72437;SDS011;60444;43.534;-5.674;2022-12-17T07:52:21;7.20;;;2.22;;
72437;SDS011;60444;43.534;-5.674;2022-12-17T07:55:05;6.45;;;2.00;;
72437;SDS011;60444;43.534;-5.674;2022-12-17T07:58:01;5.72;;;1.92;;
72437;SDS011;60444;43.534;-5.674;2022-12-17T08:00:51;7.27;;;2.00;;
72437;SDS011;60444;43.534;-5.674;2022-12-17T08:03:38;8.18;;;2.30;;
72437;SDS011;60444;43.534;-5.674;2022-12-17T08:06:22;18.38;;;7.47;;
72437;SDS011;60444;43.534;-5.674;2022-12-17T08:09:12;8.00;;;3.10;;
72437;SDS011;60444;43.534;-5.674;2022-12-17T08:11:58;7.85;;;2.15;;
72437;SDS011;60444;43.534;-5.674;2022-12-17T08:14:42;6.40;;;2.30;;
72437;SDS011;60444;43.534;-5.674;2022-12-17T08:17:26;7.78;;;2.40;;
72437;SDS011;60444;43.534;-5.674;2022-12-17T08:20:12;6.72;;;2.00;;
72437;SDS011;60444;43.534;-5.674;2022-12-17T08:23:00;12.98;;;4.82;;
72437;SDS011;60444;43.534;-5.674;2022-12-17T08:25:48;6.45;;;2.30;;
72437;SDS011;60444;43.534;-5.674;2022-12-17T08:28:35;6.23;;;2.00;;
72437;SDS011;60444;43.534;-5.674;2022-12-17T08:31:23;7.40;;;1.73;;
72437;SDS011;60444;43.534;-5.674;2022-12-17T08:34:08;7.18;;;1.98;;
72437;SDS011;60444;43.534;-5.674;2022-12-17T08:36:54;7.03;;;2.20;;
72437;SDS011;60444;43.534;-5.674;2022-12-17T08:39:38;8.82;;;2.53;;
72437;SDS011;60444;43.534;-5.674;2022-12-17T08:42:30;9.97;;;2.00;;
72437;SDS011;60444;43.534;-5.674;2022-12-17T08:45:14;6.25;;;2.10;;
72437;SDS011;60444;43.534;-5.674;2022-12-17T08:48:02;8.32;;;2.80;;
72437;SDS011;60444;43.534;-5.674;2022-12-17T08:50:48;8.52;;;3.75;;
72437;SDS011;60444;43.534;-5.674;2022-12-17T08:53:38;8.10;;;2.83;;
72437;SDS011;60444;43.534;-5.674;2022-12-17T08:56:25;8.37;;;3.03;;
72437;SDS011;60444;43.534;-5.674;2022-12-17T08:59:09;7.07;;;2.53;;
72437;SDS011;60444;43.534;-5.674;2022-12-17T09:01:55;7.78;;;2.38;;
72437;SDS011;60444;43.534;-5.674;2022-12-17T09:04:39;6.15;;;2.35;;
72437;SDS011;60444;43.534;-5.674;2022-12-17T09:07:23;8.23;;;2.75;;
72437;SDS011;60444;43.534;-5.674;2022-12-17T09:10:07;10.00;;;4.97;;
72437;SDS011;60444;43.534;-5.674;2022-12-17T09:12:51;9.43;;;4.05;;
72437;SDS011;60444;43.534;-5.674;2022-12-17T09:15:37;9.25;;;3.88;;
72437;SDS011;60444;43.534;-5.674;2022-12-17T09:18:24;11.70;;;4.78;;
72437;SDS011;60444;43.534;-5.674;2022-12-17T09:21:17;12.90;;;5.80;;
72437;SDS011;60444;43.534;-5.674;2022-12-17T09:24:03;12.77;;;6.00;;
72437;SDS011;60444;43.534;-5.674;2022-12-17T09:26:48;11.48;;;4.90;;
72437;SDS011;60444;43.534;-5.674;2022-12-17T09:29:32;9.48;;;4.03;;
72437;SDS011;60444;43.534;-5.674;2022-12-17T09:32:16;9.38;;;4.03;;
72437;SDS011;60444;43.534;-5.674;2022-12-17T09:35:09;13.77;;;6.05;;
72437;SDS011;60444;43.534;-5.674;2022-12-17T09:37:56;11.70;;;4.63;;
72437;SDS011;60444;43.534;-5.674;2022-12-17T09:40:44;8.45;;;3.45;;
72437;SDS011;60444;43.534;-5.674;2022-12-17T09:43:48;9.95;;;4.65;;
72437;SDS011;60444;43.534;-5.674;2022-12-17T09:46:47;9.80;;;5.00;;
72437;SDS011;60444;43.534;-5.674;2022-12-17T09:49:35;11.35;;;4.35;;
72437;SDS011;60444;43.534;-5.674;2022-12-17T09:52:35;12.10;;;5.13;;
72437;SDS011;60444;43.534;-5.674;2022-12-17T09:56:06;11.90;;;5.30;;
72437;SDS011;60444;43.534;-5.674;2022-12-17T09:58:38;11.77;;;4.68;;
72437;SDS011;60444;43.534;-5.674;2022-12-17T10:01:26;10.32;;;3.80;;
72437;SDS011;60444;43.534;-5.674;2022-12-17T10:04:16;9.55;;;4.22;;
72437;SDS011;60444;43.534;-5.674;2022-12-17T10:07:07;10.93;;;3.97;;
72437;SDS011;60444;43.534;-5.674;2022-12-17T10:09:56;9.82;;;3.90;;
72437;SDS011;60444;43.534;-5.674;2022-12-17T10:12:44;8.48;;;3.08;;
72437;SDS011;60444;43.534;-5.674;2022-12-17T10:15:28;9.20;;;3.13;;
72437;SDS011;60444;43.534;-5.674;2022-12-17T10:18:12;8.38;;;2.67;;
72437;SDS011;60444;43.534;-5.674;2022-12-17T10:21:01;6.87;;;2.17;;
72437;SDS011;60444;43.534;-5.674;2022-12-17T10:23:49;8.10;;;2.60;;
72437;SDS011;60444;43.534;-5.674;2022-12-17T10:26:33;6.88;;;2.75;;
72437;SDS011;60444;43.534;-5.674;2022-12-17T10:29:19;6.90;;;2.50;;
72437;SDS011;60444;43.534;-5.674;2022-12-17T10:32:37;9.35;;;3.45;;
72437;SDS011;60444;43.534;-5.674;2022-12-17T10:35:18;8.57;;;2.10;;
72437;SDS011;60444;43.534;-5.674;2022-12-17T10:38:12;7.75;;;2.20;;
72437;SDS011;60444;43.534;-5.674;2022-12-17T10:41:04;8.80;;;2.40;;
72437;SDS011;60444;43.534;-5.674;2022-12-17T10:44:28;6.47;;;2.63;;
72437;SDS011;60444;43.534;-5.674;2022-12-17T10:47:15;8.50;;;2.97;;
72437;SDS011;60444;43.534;-5.674;2022-12-17T10:50:02;8.70;;;2.23;;
72437;SDS011;60444;43.534;-5.674;2022-12-17T10:52:51;7.78;;;2.58;;
72437;SDS011;60444;43.534;-5.674;2022-12-17T10:55:35;7.32;;;2.67;;
72437;SDS011;60444;43.534;-5.674;2022-12-17T10:58:20;8.35;;;3.30;;
72437;SDS011;60444;43.534;-5.674;2022-12-17T11:01:09;9.63;;;2.90;;
72437;SDS011;60444;43.534;-5.674;2022-12-17T11:03:56;8.63;;;2.60;;
72437;SDS011;60444;43.534;-5.674;2022-12-17T11:06:50;8.32;;;2.95;;
72437;SDS011;60444;43.534;-5.674;2022-12-17T11:12:35;7.32;;;2.97;;
72437;SDS011;60444;43.534;-5.674;2022-12-17T11:15:28;7.50;;;3.28;;
72437;SDS011;60444;43.534;-5.674;2022-12-17T11:21:40;11.40;;;3.55;;
72437;SDS011;60444;43.534;-5.674;2022-12-17T11:24:32;7.93;;;2.97;;
72437;SDS011;60444;43.534;-5.674;2022-12-17T11:27:24;9.18;;;3.80;;
72437;SDS011;60444;43.534;-5.674;2022-12-17T11:30:15;9.93;;;3.83;;
72437;SDS011;60444;43.534;-5.674;2022-12-17T11:39:03;8.95;;;3.60;;
72437;SDS011;60444;43.534;-5.674;2022-12-17T11:41:58;9.50;;;3.47;;
72437;SDS011;60444;43.534;-5.674;2022-12-17T11:44:55;12.98;;;4.63;;
72437;SDS011;60444;43.534;-5.674;2022-12-17T11:50:45;9.23;;;3.38;;
72437;SDS011;60444;43.534;-5.674;2022-12-17T11:56:48;7.72;;;2.72;;
72437;SDS011;60444;43.534;-5.674;2022-12-17T11:59:48;8.25;;;2.95;;
72437;SDS011;60444;43.534;-5.674;2022-12-17T12:02:53;7.93;;;2.80;;
72437;SDS011;60444;43.534;-5.674;2022-12-17T12:05:56;8.57;;;2.85;;
72437;SDS011;60444;43.534;-5.674;2022-12-17T12:15:11;8.70;;;2.50;;
72437;SDS011;60444;43.534;-5.674;2022-12-17T12:18:05;6.73;;;2.33;;
72437;SDS011;60444;43.534;-5.674;2022-12-17T12:30:22;7.03;;;2.10;;
72437;SDS011;60444;43.534;-5.674;2022-12-17T12:33:29;6.77;;;2.60;;
72437;SDS011;60444;43.534;-5.674;2022-12-17T12:36:28;7.07;;;2.30;;
72437;SDS011;60444;43.534;-5.674;2022-12-17T12:39:15;8.23;;;2.55;;
72437;SDS011;60444;43.534;-5.674;2022-12-17T12:42:13;9.15;;;2.80;;
72437;SDS011;60444;43.534;-5.674;2022-12-17T12:51:35;6.78;;;2.13;;
72437;SDS011;60444;43.534;-5.674;2022-12-17T13:03:15;5.83;;;1.87;;
72437;SDS011;60444;43.534;-5.674;2022-12-17T13:06:38;6.80;;;2.13;;
72437;SDS011;60444;43.534;-5.674;2022-12-17T13:09:16;6.47;;;1.70;;
72437;SDS011;60444;43.534;-5.674;2022-12-17T13:14:28;6.35;;;2.38;;
72437;SDS011;60444;43.534;-5.674;2022-12-17T13:17:18;7.87;;;2.30;;
72437;SDS011;60444;43.534;-5.674;2022-12-17T13:23:24;6.70;;;2.20;;
72437;SDS011;60444;43.534;-5.674;2022-12-17T13:28:48;5.43;;;1.90;;
72437;SDS011;60444;43.534;-5.674;2022-12-17T13:31:15;4.60;;;1.70;;
72437;SDS011;60444;43.534;-5.674;2022-12-17T13:34:27;7.15;;;2.83;;
72437;SDS011;60444;43.534;-5.674;2022-12-17T13:43:20;8.10;;;3.20;;
72437;SDS011;60444;43.534;-5.674;2022-12-17T13:45:49;11.73;;;4.97;;
72437;SDS011;60444;43.534;-5.674;2022-12-17T13:48:24;12.75;;;4.22;;
72437;SDS011;60444;43.534;-5.674;2022-12-17T13:50:52;10.57;;;5.05;;
72437;SDS011;60444;43.534;-5.674;2022-12-17T13:53:26;10.73;;;4.22;;
72437;SDS011;60444;43.534;-5.674;2022-12-17T13:55:54;12.60;;;4.93;;
72437;SDS011;60444;43.534;-5.674;2022-12-17T13:58:22;11.90;;;4.50;;
72437;SDS011;60444;43.534;-5.674;2022-12-17T14:01:08;13.27;;;4.85;;
72437;SDS011;60444;43.534;-5.674;2022-12-17T14:03:41;11.23;;;5.10;;
72437;SDS011;60444;43.534;-5.674;2022-12-17T14:06:09;12.65;;;5.38;;
72437;SDS011;60444;43.534;-5.674;2022-12-17T14:08:35;12.70;;;4.00;;
72437;SDS011;60444;43.534;-5.674;2022-12-17T14:11:01;8.97;;;2.67;;
72437;SDS011;60444;43.534;-5.674;2022-12-17T14:13:46;10.95;;;3.60;;
72437;SDS011;60444;43.534;-5.674;2022-12-17T14:16:17;10.02;;;3.10;;
72437;SDS011;60444;43.534;-5.674;2022-12-17T14:18:46;9.35;;;4.18;;
72437;SDS011;60444;43.534;-5.674;2022-12-17T14:21:16;7.03;;;2.47;;
72437;SDS011;60444;43.534;-5.674;2022-12-17T14:23:42;8.07;;;2.50;;
72437;SDS011;60444;43.534;-5.674;2022-12-17T14:26:09;8.50;;;2.47;;
72437;SDS011;60444;43.534;-5.674;2022-12-17T14:28:36;8.10;;;2.80;;
72437;SDS011;60444;43.534;-5.674;2022-12-17T14:33:39;12.82;;;2.80;;
72437;SDS011;60444;43.534;-5.674;2022-12-17T14:38:53;10.27;;;2.90;;
72437;SDS011;60444;43.534;-5.674;2022-12-17T14:41:20;12.65;;;3.03;;
72437;SDS011;60444;43.534;-5.674;2022-12-17T14:44:05;8.85;;;2.97;;
72437;SDS011;60444;43.534;-5.674;2022-12-17T14:46:31;8.45;;;2.30;;
72437;SDS011;60444;43.534;-5.674;2022-12-17T14:48:59;10.30;;;2.53;;
72437;SDS011;60444;43.534;-5.674;2022-12-17T14:54:12;10.40;;;3.22;;
72437;SDS011;60444;43.534;-5.674;2022-12-17T14:56:53;8.68;;;2.35;;
72437;SDS011;60444;43.534;-5.674;2022-12-17T14:59:30;10.02;;;3.03;;
72437;SDS011;60444;43.534;-5.674;2022-12-17T15:04:37;7.82;;;2.22;;
72437;SDS011;60444;43.534;-5.674;2022-12-17T15:07:03;7.15;;;2.40;;
72437;SDS011;60444;43.534;-5.674;2022-12-17T15:09:36;7.28;;;2.63;;
72437;SDS011;60444;43.534;-5.674;2022-12-17T15:12:02;9.70;;;3.28;;
72437;SDS011;60444;43.534;-5.674;2022-12-17T15:14:28;11.53;;;3.00;;
72437;SDS011;60444;43.534;-5.674;2022-12-17T15:16:54;11.00;;;4.07;;
72437;SDS011;60444;43.534;-5.674;2022-12-17T15:19:20;12.43;;;3.87;;
72437;SDS011;60444;43.534;-5.674;2022-12-17T15:21:46;9.75;;;3.58;;
72437;SDS011;60444;43.534;-5.674;2022-12-17T15:24:14;12.00;;;3.33;;
72437;SDS011;60444;43.534;-5.674;2022-12-17T15:26:43;12.13;;;3.80;;
72437;SDS011;60444;43.534;-5.674;2022-12-17T15:29:09;15.20;;;7.40;;
72437;SDS011;60444;43.534;-5.674;2022-12-17T15:31:34;12.77;;;3.83;;
72437;SDS011;60444;43.534;-5.674;2022-12-17T15:34:00;11.68;;;3.80;;
72437;SDS011;60444;43.534;-5.674;2022-12-17T15:36:25;13.83;;;4.00;;
72437;SDS011;60444;43.534;-5.674;2022-12-17T15:38:51;9.13;;;3.23;;
72437;SDS011;60444;43.534;-5.674;2022-12-17T15:41:16;11.85;;;3.58;;
72437;SDS011;60444;43.534;-5.674;2022-12-17T15:44:00;11.32;;;3.33;;
72437;SDS011;60444;43.534;-5.674;2022-12-17T15:46:26;10.83;;;2.63;;
72437;SDS011;60444;43.534;-5.674;2022-12-17T15:48:54;15.73;;;3.33;;
72437;SDS011;60444;43.534;-5.674;2022-12-17T15:51:20;12.57;;;3.03;;
72437;SDS011;60444;43.534;-5.674;2022-12-17T15:53:47;8.33;;;2.70;;
72437;SDS011;60444;43.534;-5.674;2022-12-17T15:56:18;11.82;;;2.80;;
72437;SDS011;60444;43.534;-5.674;2022-12-17T15:58:45;9.00;;;2.42;;
72437;SDS011;60444;43.534;-5.674;2022-12-17T16:01:11;10.20;;;3.60;;
72437;SDS011;60444;43.534;-5.674;2022-12-17T16:03:36;8.10;;;2.42;;
72437;SDS011;60444;43.534;-5.674;2022-12-17T16:06:02;13.23;;;3.17;;
72437;SDS011;60444;43.534;-5.674;2022-12-17T16:08:27;9.83;;;3.20;;
72437;SDS011;60444;43.534;-5.674;2022-12-17T16:10:53;16.00;;;3.65;;
72437;SDS011;60444;43.534;-5.674;2022-12-17T16:13:18;12.73;;;3.50;;
72437;SDS011;60444;43.534;-5.674;2022-12-17T16:15:44;11.13;;;3.50;;
72437;SDS011;60444;43.534;-5.674;2022-12-17T16:18:12;10.55;;;3.00;;
72437;SDS011;60444;43.534;-5.674;2022-12-17T16:20:39;10.15;;;3.08;;
72437;SDS011;60444;43.534;-5.674;2022-12-17T16:23:05;15.27;;;3.47;;
72437;SDS011;60444;43.534;-5.674;2022-12-17T16:25:30;12.17;;;3.73;;
72437;SDS011;60444;43.534;-5.674;2022-12-17T16:27:56;9.05;;;2.55;;
72437;SDS011;60444;43.534;-5.674;2022-12-17T16:30:21;10.00;;;3.67;;
72437;SDS011;60444;43.534;-5.674;2022-12-17T16:32:47;14.43;;;4.80;;
72437;SDS011;60444;43.534;-5.674;2022-12-17T16:35:13;12.77;;;4.55;;
72437;SDS011;60444;43.534;-5.674;2022-12-17T16:37:38;14.53;;;4.40;;
72437;SDS011;60444;43.534;-5.674;2022-12-17T16:40:04;21.60;;;5.27;;
72437;SDS011;60444;43.534;-5.674;2022-12-17T16:42:30;17.30;;;4.13;;
72437;SDS011;60444;43.534;-5.674;2022-12-17T16:44:55;12.45;;;4.63;;
72437;SDS011;60444;43.534;-5.674;2022-12-17T16:47:21;13.47;;;4.30;;
72437;SDS011;60444;43.534;-5.674;2022-12-17T16:49:48;9.33;;;3.70;;
72437;SDS011;60444;43.534;-5.674;2022-12-17T16:52:14;14.60;;;4.80;;
72437;SDS011;60444;43.534;-5.674;2022-12-17T16:54:39;9.77;;;3.37;;
72437;SDS011;60444;43.534;-5.674;2022-12-17T16:57:05;10.55;;;4.05;;
72437;SDS011;60444;43.534;-5.674;2022-12-17T16:59:30;10.57;;;3.30;;
72437;SDS011;60444;43.534;-5.674;2022-12-17T17:01:56;9.60;;;3.40;;
72437;SDS011;60444;43.534;-5.674;2022-12-17T17:04:22;20.73;;;7.53;;
72437;SDS011;60444;43.534;-5.674;2022-12-17T17:06:49;21.37;;;9.17;;
72437;SDS011;60444;43.534;-5.674;2022-12-17T17:09:17;20.75;;;8.70;;
72437;SDS011;60444;43.534;-5.674;2022-12-17T17:11:43;15.55;;;7.25;;
72437;SDS011;60444;43.534;-5.674;2022-12-17T17:14:09;12.63;;;3.93;;
72437;SDS011;60444;43.534;-5.674;2022-12-17T17:16:35;12.80;;;4.10;;
72437;SDS011;60444;43.534;-5.674;2022-12-17T17:19:01;13.13;;;5.05;;
72437;SDS011;60444;43.534;-5.674;2022-12-17T17:21:31;15.68;;;5.95;;
72437;SDS011;60444;43.534;-5.674;2022-12-17T17:26:29;11.68;;;4.70;;
72437;SDS011;60444;43.534;-5.674;2022-12-17T17:28:56;17.37;;;6.13;;
72437;SDS011;60444;43.534;-5.674;2022-12-17T17:31:23;20.13;;;7.68;;
72437;SDS011;60444;43.534;-5.674;2022-12-17T17:33:49;20.33;;;9.05;;